sensor_id;sensor_type;location;lat;lon;timestamp;P1;durP1;ratioP1;P2;durP2;ratioP2
75516;SDS011;64097;52.548;13.406;2023-03-13T06:02:19;9.43;;;3.30;;
75516;SDS011;64097;52.548;13.406;2023-03-13T06:04:45;12.23;;;3.75;;
75516;SDS011;64097;52.548;13.406;2023-03-13T06:07:11;11.65;;;3.72;;
75516;SDS011;64097;52.548;13.406;2023-03-13T06:09:37;12.45;;;3.53;;
75516;SDS011;64097;52.548;13.406;2023-03-13T06:12:05;12.90;;;3.97;;
75516;SDS011;64097;52.548;13.406;2023-03-13T06:14:31;10.35;;;3.45;;
75516;SDS011;64097;52.548;13.406;2023-03-13T06:16:57;12.02;;;3.67;;
75516;SDS011;64097;52.548;13.406;2023-03-13T06:19:23;12.00;;;3.78;;
75516;SDS011;64097;52.548;13.406;2023-03-13T06:21:49;14.07;;;3.97;;
75516;SDS011;64097;52.548;13.406;2023-03-13T06:24:15;13.95;;;3.60;;
75516;SDS011;64097;52.548;13.406;2023-03-13T06:26:41;11.40;;;3.50;;
75516;SDS011;64097;52.548;13.406;2023-03-13T06:29:07;12.65;;;3.70;;
75516;SDS011;64097;52.548;13.406;2023-03-13T06:31:34;11.32;;;3.33;;
75516;SDS011;64097;52.548;13.406;2023-03-13T06:34:00;11.82;;;3.55;;
75516;SDS011;64097;52.548;13.406;2023-03-13T06:36:25;13.55;;;4.13;;
75516;SDS011;64097;52.548;13.406;2023-03-13T06:38:51;14.20;;;3.97;;
75516;SDS011;64097;52.548;13.406;2023-03-13T06:41:17;12.95;;;4.32;;
75516;SDS011;64097;52.548;13.406;2023-03-13T06:43:43;11.93;;;3.85;;
75516;SDS011;64097;52.548;13.406;2023-03-13T06:46:13;14.32;;;3.45;;
75516;SDS011;64097;52.548;13.406;2023-03-13T06:48:44;13.60;;;4.53;;
75516;SDS011;64097;52.548;13.406;2023-03-13T06:51:11;12.38;;;4.03;;
75516;SDS011;64097;52.548;13.406;2023-03-13T06:53:38;10.48;;;3.65;;
75516;SDS011;64097;52.548;13.406;2023-03-13T06:56:04;12.57;;;4.55;;
75516;SDS011;64097;52.548;13.406;2023-03-13T06:58:30;16.35;;;6.38;;
75516;SDS011;64097;52.548;13.406;2023-03-13T07:00:56;15.25;;;5.00;;
75516;SDS011;64097;52.548;13.406;2023-03-13T07:03:21;11.88;;;4.10;;
75516;SDS011;64097;52.548;13.406;2023-03-13T07:05:47;12.77;;;3.75;;
75516;SDS011;64097;52.548;13.406;2023-03-13T07:08:13;14.27;;;5.38;;
75516;SDS011;64097;52.548;13.406;2023-03-13T07:10:41;15.15;;;4.85;;
75516;SDS011;64097;52.548;13.406;2023-03-13T07:13:07;14.80;;;5.30;;
75516;SDS011;64097;52.548;13.406;2023-03-13T07:15:32;13.35;;;4.20;;
75516;SDS011;64097;52.548;13.406;2023-03-13T07:17:58;18.23;;;4.20;;
75516;SDS011;64097;52.548;13.406;2023-03-13T07:20:24;15.27;;;4.32;;
75516;SDS011;64097;52.548;13.406;2023-03-13T07:22:50;12.63;;;4.22;;
75516;SDS011;64097;52.548;13.406;2023-03-13T07:25:17;8.75;;;3.33;;
75516;SDS011;64097;52.548;13.406;2023-03-13T07:27:43;14.35;;;3.92;;
75516;SDS011;64097;52.548;13.406;2023-03-13T07:30:08;12.35;;;3.75;;
75516;SDS011;64097;52.548;13.406;2023-03-13T07:32:35;12.90;;;3.90;;
75516;SDS011;64097;52.548;13.406;2023-03-13T07:35:00;11.15;;;3.80;;
75516;SDS011;64097;52.548;13.406;2023-03-13T07:37:28;14.20;;;4.15;;
75516;SDS011;64097;52.548;13.406;2023-03-13T07:39:54;12.95;;;3.95;;
75516;SDS011;64097;52.548;13.406;2023-03-13T07:42:20;13.60;;;3.88;;
75516;SDS011;64097;52.548;13.406;2023-03-13T07:44:46;12.77;;;3.83;;
75516;SDS011;64097;52.548;13.406;2023-03-13T07:47:11;9.60;;;3.50;;
75516;SDS011;64097;52.548;13.406;2023-03-13T07:49:37;9.38;;;3.85;;
75516;SDS011;64097;52.548;13.406;2023-03-13T07:52:06;14.38;;;3.80;;
75516;SDS011;64097;52.548;13.406;2023-03-13T07:54:32;14.05;;;3.90;;
75516;SDS011;64097;52.548;13.406;2023-03-13T07:56:58;12.70;;;3.90;;
75516;SDS011;64097;52.548;13.406;2023-03-13T07:59:25;13.82;;;3.72;;
75516;SDS011;64097;52.548;13.406;2023-03-13T08:01:50;12.75;;;4.03;;
75516;SDS011;64097;52.548;13.406;2023-03-13T08:04:16;13.77;;;3.72;;
75516;SDS011;64097;52.548;13.406;2023-03-13T08:06:41;12.23;;;3.97;;
75516;SDS011;64097;52.548;13.406;2023-03-13T08:09:07;11.50;;;3.92;;
75516;SDS011;64097;52.548;13.406;2023-03-13T08:11:33;12.30;;;3.50;;
75516;SDS011;64097;52.548;13.406;2023-03-13T08:13:59;11.35;;;3.70;;
75516;SDS011;64097;52.548;13.406;2023-03-13T08:16:26;13.63;;;4.15;;
75516;SDS011;64097;52.548;13.406;2023-03-13T08:18:54;11.70;;;3.42;;
75516;SDS011;64097;52.548;13.406;2023-03-13T08:21:22;15.48;;;4.38;;
75516;SDS011;64097;52.548;13.406;2023-03-13T08:23:52;10.05;;;3.17;;
75516;SDS011;64097;52.548;13.406;2023-03-13T08:26:19;12.35;;;3.63;;
75516;SDS011;64097;52.548;13.406;2023-03-13T08:28:47;12.65;;;3.60;;
75516;SDS011;64097;52.548;13.406;2023-03-13T08:31:20;12.07;;;3.72;;
75516;SDS011;64097;52.548;13.406;2023-03-13T08:33:47;12.38;;;4.15;;
75516;SDS011;64097;52.548;13.406;2023-03-13T08:36:14;9.27;;;3.15;;
75516;SDS011;64097;52.548;13.406;2023-03-13T08:38:43;11.48;;;3.67;;
75516;SDS011;64097;52.548;13.406;2023-03-13T08:41:11;10.02;;;3.85;;
75516;SDS011;64097;52.548;13.406;2023-03-13T08:43:37;10.90;;;4.00;;
75516;SDS011;64097;52.548;13.406;2023-03-13T08:46:03;8.48;;;2.80;;
75516;SDS011;64097;52.548;13.406;2023-03-13T08:48:29;8.63;;;2.83;;
75516;SDS011;64097;52.548;13.406;2023-03-13T08:51:05;8.07;;;2.85;;
75516;SDS011;64097;52.548;13.406;2023-03-13T08:53:31;10.27;;;3.15;;
75516;SDS011;64097;52.548;13.406;2023-03-13T08:55:58;8.65;;;3.58;;
75516;SDS011;64097;52.548;13.406;2023-03-13T08:58:24;7.85;;;3.13;;
75516;SDS011;64097;52.548;13.406;2023-03-13T09:00:50;10.30;;;3.50;;
75516;SDS011;64097;52.548;13.406;2023-03-13T09:03:16;9.48;;;3.20;;
75516;SDS011;64097;52.548;13.406;2023-03-13T09:05:42;8.63;;;3.08;;
75516;SDS011;64097;52.548;13.406;2023-03-13T09:08:10;11.57;;;3.25;;
75516;SDS011;64097;52.548;13.406;2023-03-13T09:10:36;9.75;;;3.33;;
75516;SDS011;64097;52.548;13.406;2023-03-13T09:13:01;7.70;;;3.03;;
75516;SDS011;64097;52.548;13.406;2023-03-13T09:15:27;8.35;;;3.22;;
75516;SDS011;64097;52.548;13.406;2023-03-13T09:17:53;9.15;;;3.00;;
75516;SDS011;64097;52.548;13.406;2023-03-13T09:20:19;8.70;;;3.33;;
75516;SDS011;64097;52.548;13.406;2023-03-13T09:22:45;7.28;;;2.97;;
75516;SDS011;64097;52.548;13.406;2023-03-13T09:25:11;8.63;;;3.17;;
75516;SDS011;64097;52.548;13.406;2023-03-13T09:27:37;9.93;;;3.08;;
75516;SDS011;64097;52.548;13.406;2023-03-13T09:30:04;10.13;;;2.90;;
75516;SDS011;64097;52.548;13.406;2023-03-13T09:32:31;10.00;;;3.13;;
75516;SDS011;64097;52.548;13.406;2023-03-13T09:34:57;8.25;;;3.03;;
75516;SDS011;64097;52.548;13.406;2023-03-13T09:37:23;8.95;;;3.17;;
75516;SDS011;64097;52.548;13.406;2023-03-13T09:39:49;8.38;;;3.15;;
75516;SDS011;64097;52.548;13.406;2023-03-13T09:42:16;8.27;;;2.88;;
75516;SDS011;64097;52.548;13.406;2023-03-13T09:45:07;6.80;;;2.63;;
75516;SDS011;64097;52.548;13.406;2023-03-13T09:50:17;6.68;;;2.45;;
75516;SDS011;64097;52.548;13.406;2023-03-13T09:53:10;7.45;;;2.60;;
75516;SDS011;64097;52.548;13.406;2023-03-13T09:55:40;6.80;;;2.90;;
75516;SDS011;64097;52.548;13.406;2023-03-13T10:00:46;10.50;;;2.45;;
75516;SDS011;64097;52.548;13.406;2023-03-13T10:03:27;7.90;;;3.05;;
75516;SDS011;64097;52.548;13.406;2023-03-13T10:05:56;6.50;;;2.67;;
75516;SDS011;64097;52.548;13.406;2023-03-13T10:08:30;8.68;;;2.50;;
75516;SDS011;64097;52.548;13.406;2023-03-13T10:11:04;6.10;;;2.30;;
75516;SDS011;64097;52.548;13.406;2023-03-13T10:19:15;4.93;;;2.10;;
75516;SDS011;64097;52.548;13.406;2023-03-13T10:21:49;5.80;;;2.10;;
75516;SDS011;64097;52.548;13.406;2023-03-13T10:24:29;8.10;;;2.25;;
75516;SDS011;64097;52.548;13.406;2023-03-13T10:26:58;6.15;;;2.20;;
75516;SDS011;64097;52.548;13.406;2023-03-13T10:29:27;4.72;;;2.13;;
75516;SDS011;64097;52.548;13.406;2023-03-13T10:31:59;5.22;;;2.20;;
75516;SDS011;64097;52.548;13.406;2023-03-13T10:34:52;5.22;;;2.00;;
75516;SDS011;64097;52.548;13.406;2023-03-13T10:37:20;5.07;;;2.17;;
75516;SDS011;64097;52.548;13.406;2023-03-13T10:39:50;5.60;;;2.25;;
75516;SDS011;64097;52.548;13.406;2023-03-13T10:42:30;5.82;;;2.28;;
75516;SDS011;64097;52.548;13.406;2023-03-13T10:44:58;5.57;;;1.95;;
75516;SDS011;64097;52.548;13.406;2023-03-13T10:47:25;4.10;;;1.90;;
75516;SDS011;64097;52.548;13.406;2023-03-13T10:49:54;4.45;;;1.80;;
75516;SDS011;64097;52.548;13.406;2023-03-13T10:52:28;6.05;;;2.40;;
75516;SDS011;64097;52.548;13.406;2023-03-13T10:55:05;5.10;;;1.90;;
75516;SDS011;64097;52.548;13.406;2023-03-13T10:57:34;4.25;;;2.00;;
75516;SDS011;64097;52.548;13.406;2023-03-13T11:00:19;4.93;;;1.90;;
75516;SDS011;64097;52.548;13.406;2023-03-13T11:02:46;4.45;;;1.90;;
75516;SDS011;64097;52.548;13.406;2023-03-13T11:05:28;3.70;;;1.88;;
75516;SDS011;64097;52.548;13.406;2023-03-13T11:07:55;5.82;;;2.17;;
75516;SDS011;64097;52.548;13.406;2023-03-13T11:10:22;4.20;;;1.80;;
75516;SDS011;64097;52.548;13.406;2023-03-13T11:12:50;3.20;;;1.75;;
75516;SDS011;64097;52.548;13.406;2023-03-13T11:15:28;4.05;;;1.60;;
75516;SDS011;64097;52.548;13.406;2023-03-13T11:18:13;3.85;;;1.75;;
75516;SDS011;64097;52.548;13.406;2023-03-13T11:20:50;3.38;;;1.58;;
75516;SDS011;64097;52.548;13.406;2023-03-13T11:29:24;2.92;;;1.35;;
75516;SDS011;64097;52.548;13.406;2023-03-13T11:32:24;3.33;;;1.50;;
75516;SDS011;64097;52.548;13.406;2023-03-13T11:34:57;3.40;;;1.40;;
75516;SDS011;64097;52.548;13.406;2023-03-13T11:37:27;3.58;;;1.80;;
75516;SDS011;64097;52.548;13.406;2023-03-13T11:45:49;2.65;;;1.40;;
75516;SDS011;64097;52.548;13.406;2023-03-13T11:57:58;1.92;;;0.85;;
75516;SDS011;64097;52.548;13.406;2023-03-13T12:00:28;2.17;;;1.10;;
75516;SDS011;64097;52.548;13.406;2023-03-13T12:03:19;2.35;;;1.20;;
75516;SDS011;64097;52.548;13.406;2023-03-13T12:05:47;3.70;;;1.17;;
75516;SDS011;64097;52.548;13.406;2023-03-13T12:13:49;1.58;;;1.10;;
75516;SDS011;64097;52.548;13.406;2023-03-13T12:16:55;2.15;;;1.08;;
75516;SDS011;64097;52.548;13.406;2023-03-13T12:19:19;1.70;;;0.90;;
75516;SDS011;64097;52.548;13.406;2023-03-13T12:21:52;2.20;;;1.00;;
75516;SDS011;64097;52.548;13.406;2023-03-13T12:26:58;1.35;;;0.80;;
75516;SDS011;64097;52.548;13.406;2023-03-13T12:35:19;1.90;;;0.95;;
75516;SDS011;64097;52.548;13.406;2023-03-13T12:40:38;2.05;;;1.00;;
75516;SDS011;64097;52.548;13.406;2023-03-13T12:51:39;1.50;;;0.82;;
75516;SDS011;64097;52.548;13.406;2023-03-13T12:59:34;1.98;;;1.00;;
75516;SDS011;64097;52.548;13.406;2023-03-13T13:02:12;4.05;;;2.25;;
75516;SDS011;64097;52.548;13.406;2023-03-13T13:04:43;3.88;;;1.95;;
75516;SDS011;64097;52.548;13.406;2023-03-13T13:07:19;2.03;;;1.20;;
75516;SDS011;64097;52.548;13.406;2023-03-13T13:12:39;3.05;;;1.50;;
75516;SDS011;64097;52.548;13.406;2023-03-13T13:15:24;2.65;;;1.13;;
75516;SDS011;64097;52.548;13.406;2023-03-13T13:21:34;2.50;;;1.52;;
75516;SDS011;64097;52.548;13.406;2023-03-13T13:23:38;2.25;;;1.00;;
75516;SDS011;64097;52.548;13.406;2023-03-13T13:28:54;3.22;;;0.93;;
75516;SDS011;64097;52.548;13.406;2023-03-13T13:36:54;1.70;;;0.65;;
75516;SDS011;64097;52.548;13.406;2023-03-13T13:41:52;0.93;;;0.70;;
75516;SDS011;64097;52.548;13.406;2023-03-13T13:44:26;1.23;;;0.90;;
75516;SDS011;64097;52.548;13.406;2023-03-13T13:46:53;1.30;;;0.73;;
75516;SDS011;64097;52.548;13.406;2023-03-13T13:49:33;2.85;;;1.00;;
75516;SDS011;64097;52.548;13.406;2023-03-13T13:57:16;1.52;;;0.80;;
75516;SDS011;64097;52.548;13.406;2023-03-13T13:59:49;1.73;;;0.70;;
